TAX865 UAAA-VTBD
Flight info
| Callsign | TAX865 |
|---|---|
| Flight time | 5h 55m |
| Altitude | 40000 |
| Route | N0450F400 DCT LAKEL L135 OSH L142 POMIR Z407 FIRUZ P500 PS T400 NONIB L509 SULOM M890 LKN R460 BBN P646 TARED DCT |
| Aircraft | A333/H-SDE3FGIRWY/LB1D1 |
Departure
| Time | 2026-04-22 20:23 |
|---|---|
| Airport | Almaty International Airport (UAAA) |
Arrival
| Time | 2026-04-23 02:19 |
|---|---|
| Airport | Don Mueang International Airport (VTBD) |
| Time | Latitude | Longitude | Altitude | Speed | Heading |
|---|---|---|---|---|---|
| 2026-04-22 19:32 | 43.35035 | 77.01261 | 2235 ft | 0 kts | 246° |
| 2026-04-22 20:02 | 43.35038 | 77.01270 | 2235 ft | 2 kts | 246° |
| 2026-04-22 20:02 | 43.35045 | 77.01291 | 2228 ft | 2 kts | 246° |
| 2026-04-22 20:02 | 43.35052 | 77.01311 | 2233 ft | 2 kts | 240° |
| 2026-04-22 20:03 | 43.35061 | 77.01330 | 2235 ft | 2 kts | 222° |
| 2026-04-22 20:03 | 43.35074 | 77.01343 | 2234 ft | 2 kts | 206° |
| 2026-04-22 20:03 | 43.35089 | 77.01353 | 2235 ft | 2 kts | 206° |
| 2026-04-22 20:03 | 43.35104 | 77.01360 | 2230 ft | 2 kts | 188° |
| 2026-04-22 20:04 | 43.35120 | 77.01361 | 2235 ft | 2 kts | 160° |
| 2026-04-22 20:04 | 43.35124 | 77.01359 | 2235 ft | 0 kts | 155° |
| 2026-04-22 20:11 | 43.35119 | 77.01362 | 2235 ft | 1 kts | 155° |
| 2026-04-22 20:11 | 43.35087 | 77.01379 | 2228 ft | 7 kts | 162° |
| 2026-04-22 20:11 | 43.35042 | 77.01399 | 2231 ft | 7 kts | 161° |
| 2026-04-22 20:11 | 43.34998 | 77.01427 | 2230 ft | 7 kts | 155° |
| 2026-04-22 20:12 | 43.34951 | 77.01456 | 2232 ft | 8 kts | 155° |
| 2026-04-22 20:12 | 43.34903 | 77.01485 | 2229 ft | 8 kts | 156° |
| 2026-04-22 20:12 | 43.34870 | 77.01502 | 2227 ft | 7 kts | 164° |
| 2026-04-22 20:12 | 43.34820 | 77.01549 | 2230 ft | 5 kts | 118° |
| 2026-04-22 20:13 | 43.34819 | 77.01567 | 2228 ft | 4 kts | 95° |
| 2026-04-22 20:13 | 43.34815 | 77.01636 | 2227 ft | 11 kts | 94° |
| 2026-04-22 20:13 | 43.34809 | 77.01742 | 2229 ft | 14 kts | 94° |
| 2026-04-22 20:13 | 43.34802 | 77.01901 | 2234 ft | 19 kts | 94° |
| 2026-04-22 20:14 | 43.34792 | 77.02107 | 2234 ft | 23 kts | 93° |
| 2026-04-22 20:14 | 43.34782 | 77.02320 | 2234 ft | 22 kts | 94° |
| 2026-04-22 20:14 | 43.34770 | 77.02525 | 2228 ft | 21 kts | 92° |
| 2026-04-22 20:14 | 43.34827 | 77.02702 | 2231 ft | 21 kts | 56° |
| 2026-04-22 20:15 | 43.34911 | 77.02870 | 2225 ft | 21 kts | 55° |
| 2026-04-22 20:15 | 43.34992 | 77.03032 | 2224 ft | 20 kts | 56° |
| 2026-04-22 20:15 | 43.35069 | 77.03188 | 2227 ft | 19 kts | 56° |
| 2026-04-22 20:15 | 43.35141 | 77.03336 | 2233 ft | 19 kts | 56° |
| 2026-04-22 20:16 | 43.35213 | 77.03482 | 2232 ft | 18 kts | 56° |
| 2026-04-22 20:16 | 43.35286 | 77.03627 | 2225 ft | 19 kts | 55° |
| 2026-04-22 20:16 | 43.35361 | 77.03776 | 2227 ft | 19 kts | 56° |
| 2026-04-22 20:16 | 43.35436 | 77.03928 | 2226 ft | 20 kts | 55° |
| 2026-04-22 20:17 | 43.35512 | 77.04079 | 2228 ft | 19 kts | 56° |
| 2026-04-22 20:17 | 43.35584 | 77.04227 | 2226 ft | 18 kts | 56° |
| 2026-04-22 20:17 | 43.35654 | 77.04368 | 2227 ft | 17 kts | 56° |
| 2026-04-22 20:17 | 43.35724 | 77.04510 | 2225 ft | 20 kts | 56° |
| 2026-04-22 20:18 | 43.35813 | 77.04690 | 2226 ft | 25 kts | 56° |
| 2026-04-22 20:18 | 43.35921 | 77.04912 | 2225 ft | 29 kts | 54° |
| 2026-04-22 20:18 | 43.36035 | 77.05134 | 2223 ft | 28 kts | 55° |
| 2026-04-22 20:18 | 43.36138 | 77.05348 | 2226 ft | 26 kts | 57° |
| 2026-04-22 20:19 | 43.36239 | 77.05548 | 2231 ft | 25 kts | 55° |
| 2026-04-22 20:19 | 43.36304 | 77.05678 | 2231 ft | 25 kts | 55° |
| 2026-04-22 20:19 | 43.36401 | 77.05872 | 2228 ft | 24 kts | 55° |
| 2026-04-22 20:19 | 43.36492 | 77.06056 | 2228 ft | 20 kts | 56° |
| 2026-04-22 20:20 | 43.36510 | 77.06127 | 2227 ft | 1 kts | 99° |
| 2026-04-22 20:20 | 43.36503 | 77.06132 | 2226 ft | 3 kts | 136° |
| 2026-04-22 20:20 | 43.36476 | 77.06158 | 2227 ft | 7 kts | 145° |
| 2026-04-22 20:20 | 43.36424 | 77.06195 | 2233 ft | 10 kts | 165° |
| 2026-04-22 20:21 | 43.36341 | 77.06180 | 2230 ft | 14 kts | 201° |
| 2026-04-22 20:21 | 43.36280 | 77.06096 | 2230 ft | 0 kts | 236° |
| 2026-04-22 20:22 | 43.36182 | 77.05900 | 2237 ft | 58 kts | 235° |
| 2026-04-22 20:22 | 43.35820 | 77.05179 | 2227 ft | 123 kts | 236° |
| 2026-04-22 20:22 | 43.35234 | 77.03996 | 2230 ft | 174 kts | 236° |
| 2026-04-22 20:23 | 43.34487 | 77.02462 | 2476 ft | 203 kts | 237° |
| 2026-04-22 20:23 | 43.33755 | 77.00931 | 3212 ft | 173 kts | 236° |
| 2026-04-22 20:23 | 43.33079 | 76.99518 | 3608 ft | 189 kts | 237° |
| 2026-04-22 20:23 | 43.32346 | 76.97903 | 3940 ft | 216 kts | 239° |
| 2026-04-22 20:24 | 43.31844 | 76.95778 | 4057 ft | 254 kts | 270° |
| 2026-04-22 20:24 | 43.32268 | 76.93439 | 4562 ft | 262 kts | 302° |
| 2026-04-22 20:24 | 43.33566 | 76.91614 | 5074 ft | 274 kts | 328° |
| 2026-04-22 20:24 | 43.35233 | 76.90343 | 5548 ft | 274 kts | 333° |
| 2026-04-22 20:25 | 43.36938 | 76.89113 | 6005 ft | 280 kts | 332° |
| 2026-04-22 20:25 | 43.38648 | 76.87815 | 6458 ft | 281 kts | 330° |
| 2026-04-22 20:25 | 43.40327 | 76.86437 | 6904 ft | 281 kts | 328° |
| 2026-04-22 20:25 | 43.41972 | 76.84972 | 7355 ft | 283 kts | 326° |
| 2026-04-22 20:26 | 43.43557 | 76.83352 | 7831 ft | 284 kts | 314° |
| 2026-04-22 20:26 | 43.44803 | 76.81250 | 8288 ft | 285 kts | 304° |
| 2026-04-22 20:26 | 43.45871 | 76.78946 | 8766 ft | 286 kts | 300° |
| 2026-04-22 20:26 | 43.46839 | 76.76544 | 9251 ft | 288 kts | 297° |
| 2026-04-22 20:27 | 43.47724 | 76.74106 | 9719 ft | 289 kts | 295° |
| 2026-04-22 20:27 | 43.48567 | 76.71596 | 10162 ft | 289 kts | 293° |
| 2026-04-22 20:27 | 43.49378 | 76.69048 | 10613 ft | 291 kts | 292° |
| 2026-04-22 20:27 | 43.50171 | 76.66454 | 11069 ft | 298 kts | 291° |
| 2026-04-22 20:28 | 43.50972 | 76.63763 | 11536 ft | 309 kts | 290° |
| 2026-04-22 20:28 | 43.51841 | 76.61007 | 11920 ft | 323 kts | 299° |
| 2026-04-22 20:28 | 43.53383 | 76.58685 | 12326 ft | 337 kts | 323° |
| 2026-04-22 20:28 | 43.55454 | 76.57075 | 12821 ft | 347 kts | 333° |
| 2026-04-22 20:29 | 43.57703 | 76.55767 | 13316 ft | 355 kts | 337° |
| 2026-04-22 20:29 | 43.60060 | 76.54636 | 13791 ft | 362 kts | 340° |
| 2026-04-22 20:29 | 43.62494 | 76.53637 | 14225 ft | 368 kts | 342° |
| 2026-04-22 20:29 | 43.64999 | 76.52773 | 14682 ft | 374 kts | 349° |
| 2026-04-22 20:30 | 43.67619 | 76.52828 | 15159 ft | 383 kts | 11° |
| 2026-04-22 20:30 | 43.70105 | 76.54181 | 15651 ft | 389 kts | 32° |
| 2026-04-22 20:30 | 43.72137 | 76.56660 | 16143 ft | 393 kts | 52° |
| 2026-04-22 20:30 | 43.73463 | 76.59962 | 16636 ft | 396 kts | 72° |
| 2026-04-22 20:31 | 43.73944 | 76.63690 | 17152 ft | 396 kts | 92° |
| 2026-04-22 20:31 | 43.73509 | 76.67419 | 17670 ft | 393 kts | 112° |
| 2026-04-22 20:31 | 43.72211 | 76.70709 | 18189 ft | 389 kts | 131° |
| 2026-04-22 20:31 | 43.70423 | 76.73514 | 18606 ft | 389 kts | 137° |
| 2026-04-22 20:32 | 43.68523 | 76.76189 | 19026 ft | 391 kts | 138° |
| 2026-04-22 20:32 | 43.66595 | 76.78813 | 19500 ft | 392 kts | 139° |
| 2026-04-22 20:32 | 43.64639 | 76.81445 | 19950 ft | 393 kts | 139° |
| 2026-04-22 20:32 | 43.62684 | 76.84080 | 20437 ft | 393 kts | 139° |
| 2026-04-22 20:33 | 43.60736 | 76.86733 | 20932 ft | 394 kts | 139° |
| 2026-04-22 20:33 | 43.58798 | 76.89409 | 21408 ft | 394 kts | 138° |
| 2026-04-22 20:33 | 43.56841 | 76.92055 | 21795 ft | 395 kts | 146° |
| 2026-04-22 20:33 | 43.54497 | 76.93881 | 22337 ft | 382 kts | 167° |
| 2026-04-22 20:34 | 43.51932 | 76.94494 | 22890 ft | 371 kts | 182° |
| 2026-04-22 20:34 | 43.49366 | 76.94501 | 23427 ft | 367 kts | 187° |
| 2026-04-22 20:34 | 43.46781 | 76.94327 | 23510 ft | 378 kts | 189° |
| 2026-04-22 20:34 | 43.44142 | 76.94041 | 23794 ft | 380 kts | 190° |
| 2026-04-22 20:35 | 43.41492 | 76.93699 | 24092 ft | 384 kts | 190° |
| 2026-04-22 20:35 | 43.38812 | 76.93342 | 24321 ft | 389 kts | 191° |
| 2026-04-22 20:35 | 43.36104 | 76.92983 | 24547 ft | 394 kts | 190° |
| 2026-04-22 20:35 | 43.33357 | 76.92625 | 24776 ft | 399 kts | 190° |
| 2026-04-22 20:36 | 43.30580 | 76.92274 | 25014 ft | 403 kts | 190° |
| 2026-04-22 20:36 | 43.27808 | 76.91932 | 25247 ft | 408 kts | 190° |
| 2026-04-22 20:36 | 43.24968 | 76.91589 | 25486 ft | 412 kts | 190° |
| 2026-04-22 20:36 | 43.22187 | 76.90836 | 25745 ft | 405 kts | 206° |
| 2026-04-22 20:37 | 43.19685 | 76.89112 | 26003 ft | 403 kts | 214° |
| 2026-04-22 20:37 | 43.17298 | 76.87090 | 26243 ft | 405 kts | 217° |
| 2026-04-22 20:37 | 43.14946 | 76.84952 | 26501 ft | 407 kts | 218° |
| 2026-04-22 20:37 | 43.12607 | 76.82737 | 26758 ft | 410 kts | 219° |
| 2026-04-22 20:38 | 43.10278 | 76.80466 | 27021 ft | 413 kts | 219° |
| 2026-04-22 20:38 | 43.07947 | 76.78154 | 27281 ft | 415 kts | 220° |
| 2026-04-22 20:38 | 43.05618 | 76.75817 | 27527 ft | 416 kts | 219° |
| 2026-04-22 20:38 | 43.03281 | 76.73461 | 27795 ft | 418 kts | 219° |
| 2026-04-22 20:39 | 43.00931 | 76.71094 | 28059 ft | 420 kts | 219° |
| 2026-04-22 20:39 | 42.98575 | 76.68719 | 28329 ft | 422 kts | 220° |
| 2026-04-22 20:39 | 42.96208 | 76.66330 | 28600 ft | 424 kts | 219° |
| 2026-04-22 20:39 | 42.93835 | 76.63938 | 28879 ft | 425 kts | 220° |
| 2026-04-22 20:40 | 42.91458 | 76.61528 | 29135 ft | 426 kts | 220° |
| 2026-04-22 20:40 | 42.89082 | 76.59113 | 29421 ft | 427 kts | 220° |
| 2026-04-22 20:40 | 42.86699 | 76.56694 | 29712 ft | 427 kts | 220° |
| 2026-04-22 20:40 | 42.84310 | 76.54273 | 29990 ft | 428 kts | 220° |
| 2026-04-22 20:41 | 42.81919 | 76.51854 | 30238 ft | 429 kts | 220° |
| 2026-04-22 20:41 | 42.79522 | 76.49434 | 30488 ft | 429 kts | 220° |
| 2026-04-22 20:41 | 42.77123 | 76.47015 | 30733 ft | 429 kts | 220° |
| 2026-04-22 20:41 | 42.74719 | 76.44595 | 30972 ft | 430 kts | 220° |
| 2026-04-22 20:42 | 42.72317 | 76.42179 | 31208 ft | 430 kts | 220° |
| 2026-04-22 20:42 | 42.69913 | 76.39767 | 31462 ft | 429 kts | 220° |
| 2026-04-22 20:42 | 42.67513 | 76.37363 | 31705 ft | 428 kts | 220° |
| 2026-04-22 20:42 | 42.65118 | 76.34968 | 31943 ft | 427 kts | 220° |
| 2026-04-22 20:43 | 42.62728 | 76.32579 | 32182 ft | 426 kts | 220° |
| 2026-04-22 20:43 | 42.60380 | 76.30230 | 32421 ft | 424 kts | 221° |
| 2026-04-22 20:43 | 42.58012 | 76.27860 | 32664 ft | 422 kts | 221° |
| 2026-04-22 20:43 | 42.55651 | 76.25500 | 32909 ft | 421 kts | 221° |
| 2026-04-22 20:44 | 42.53299 | 76.23151 | 33164 ft | 419 kts | 221° |
| 2026-04-22 20:44 | 42.50960 | 76.20816 | 33415 ft | 417 kts | 221° |
| 2026-04-22 20:44 | 42.48630 | 76.18493 | 33682 ft | 415 kts | 221° |
| 2026-04-22 20:44 | 42.46312 | 76.16177 | 33934 ft | 412 kts | 223° |
| 2026-04-22 20:45 | 42.44298 | 76.13504 | 34186 ft | 403 kts | 233° |
| 2026-04-22 20:45 | 42.42544 | 76.10561 | 34416 ft | 400 kts | 235° |
| 2026-04-22 20:45 | 42.40865 | 76.07567 | 34661 ft | 399 kts | 236° |
| 2026-04-22 20:45 | 42.39222 | 76.04554 | 34911 ft | 397 kts | 237° |
| 2026-04-22 20:46 | 42.36022 | 75.98523 | 35385 ft | 393 kts | 238° |
| 2026-04-22 20:46 | 42.34446 | 75.95510 | 35648 ft | 392 kts | 238° |
| 2026-04-22 20:46 | 42.32876 | 75.92493 | 35791 ft | 393 kts | 238° |
| 2026-04-22 20:47 | 42.31304 | 75.89461 | 35946 ft | 394 kts | 238° |
| 2026-04-22 20:47 | 42.29736 | 75.86426 | 36054 ft | 394 kts | 238° |
| 2026-04-22 20:47 | 42.26596 | 75.80344 | 36225 ft | 395 kts | 238° |
| 2026-04-22 20:48 | 42.25022 | 75.77298 | 36353 ft | 396 kts | 238° |
| 2026-04-22 20:48 | 42.23469 | 75.74287 | 36474 ft | 396 kts | 238° |
| 2026-04-22 20:48 | 42.21894 | 75.71231 | 36589 ft | 397 kts | 238° |
| 2026-04-22 20:48 | 42.20318 | 75.68175 | 36694 ft | 397 kts | 238° |
| 2026-04-22 20:49 | 42.17159 | 75.62058 | 36895 ft | 398 kts | 238° |
| 2026-04-22 20:49 | 42.13993 | 75.55936 | 37089 ft | 398 kts | 238° |
| 2026-04-22 20:50 | 42.12408 | 75.52874 | 37192 ft | 399 kts | 238° |
| 2026-04-22 20:50 | 42.10819 | 75.49809 | 37278 ft | 399 kts | 238° |
| 2026-04-22 20:50 | 42.07645 | 75.43696 | 37453 ft | 398 kts | 238° |
| 2026-04-22 20:51 | 42.04488 | 75.37622 | 37671 ft | 395 kts | 238° |
| 2026-04-22 20:51 | 42.02911 | 75.34593 | 37776 ft | 395 kts | 237° |
| 2026-04-22 20:51 | 42.01338 | 75.31573 | 37858 ft | 395 kts | 238° |
| 2026-04-22 20:52 | 41.99758 | 75.28547 | 37962 ft | 395 kts | 237° |
| 2026-04-22 20:52 | 41.98179 | 75.25522 | 38038 ft | 395 kts | 237° |
| 2026-04-22 20:52 | 41.95023 | 75.19488 | 38190 ft | 394 kts | 237° |
| 2026-04-22 20:53 | 41.91868 | 75.13467 | 38398 ft | 394 kts | 237° |
| 2026-04-22 20:53 | 41.90291 | 75.10465 | 38503 ft | 393 kts | 237° |
| 2026-04-22 20:53 | 41.88715 | 75.07466 | 38601 ft | 393 kts | 237° |
| 2026-04-22 20:54 | 41.85583 | 75.01511 | 38784 ft | 393 kts | 237° |
| 2026-04-22 20:54 | 41.82405 | 74.95483 | 38924 ft | 393 kts | 237° |
| 2026-04-22 20:55 | 41.79243 | 74.89496 | 39066 ft | 394 kts | 237° |
| 2026-04-22 20:55 | 41.76078 | 74.83497 | 39213 ft | 395 kts | 237° |
| 2026-04-22 20:56 | 41.72922 | 74.77525 | 39360 ft | 396 kts | 237° |
| 2026-04-22 20:56 | 41.69722 | 74.71499 | 39493 ft | 398 kts | 237° |
| 2026-04-22 20:57 | 41.66516 | 74.65463 | 39614 ft | 398 kts | 237° |
| 2026-04-22 20:57 | 41.63297 | 74.59413 | 39724 ft | 399 kts | 236° |
| 2026-04-22 20:58 | 41.60076 | 74.53371 | 39852 ft | 400 kts | 237° |
| 2026-04-22 20:58 | 41.56831 | 74.47301 | 40005 ft | 404 kts | 236° |
| 2026-04-22 20:59 | 41.53546 | 74.41161 | 40033 ft | 409 kts | 237° |
| 2026-04-22 20:59 | 41.50229 | 74.34972 | 39994 ft | 410 kts | 237° |
| 2026-04-22 21:00 | 41.46902 | 74.28778 | 39999 ft | 411 kts | 236° |
| 2026-04-22 21:00 | 41.43562 | 74.22585 | 40006 ft | 412 kts | 236° |
| 2026-04-22 21:01 | 41.40210 | 74.16384 | 40008 ft | 413 kts | 236° |
| 2026-04-22 21:01 | 41.36853 | 74.10185 | 39993 ft | 412 kts | 236° |
| 2026-04-22 21:02 | 41.33493 | 74.04001 | 39994 ft | 412 kts | 236° |
| 2026-04-22 21:02 | 41.30062 | 73.97902 | 39986 ft | 412 kts | 235° |
| 2026-04-22 21:03 | 41.26582 | 73.91847 | 39985 ft | 411 kts | 234° |
| 2026-04-22 21:03 | 41.23095 | 73.85836 | 39993 ft | 410 kts | 234° |
| 2026-04-22 21:04 | 41.19604 | 73.79835 | 39981 ft | 410 kts | 234° |
| 2026-04-22 21:04 | 41.16111 | 73.73843 | 39978 ft | 410 kts | 234° |
| 2026-04-22 21:05 | 41.12610 | 73.67848 | 39996 ft | 411 kts | 234° |
| 2026-04-22 21:05 | 41.09100 | 73.61859 | 39979 ft | 411 kts | 234° |
| 2026-04-22 21:06 | 41.05599 | 73.55880 | 39968 ft | 410 kts | 234° |
| 2026-04-22 21:06 | 41.02120 | 73.49965 | 39960 ft | 410 kts | 234° |
| 2026-04-22 21:07 | 40.98614 | 73.44013 | 39959 ft | 410 kts | 233° |
| 2026-04-22 21:07 | 40.95104 | 73.38065 | 39960 ft | 410 kts | 233° |
| 2026-04-22 21:08 | 40.91589 | 73.32117 | 39956 ft | 410 kts | 233° |
| 2026-04-22 21:08 | 40.88642 | 73.27141 | 39947 ft | 410 kts | 233° |
| 2026-04-22 21:09 | 40.85123 | 73.21209 | 39952 ft | 410 kts | 234° |
| 2026-04-22 21:09 | 40.81602 | 73.15286 | 39949 ft | 410 kts | 233° |
| 2026-04-22 21:10 | 40.78103 | 73.09405 | 39946 ft | 410 kts | 233° |
| 2026-04-22 21:10 | 40.74577 | 73.03498 | 39942 ft | 410 kts | 233° |
| 2026-04-22 21:11 | 40.71046 | 72.97590 | 39938 ft | 410 kts | 233° |
| 2026-04-22 21:11 | 40.67509 | 72.91686 | 39963 ft | 410 kts | 233° |
| 2026-04-22 21:12 | 40.63969 | 72.85786 | 39963 ft | 410 kts | 233° |
| 2026-04-22 21:12 | 40.59734 | 72.80767 | 39977 ft | 417 kts | 216° |
| 2026-04-22 21:13 | 40.54646 | 72.77014 | 39963 ft | 420 kts | 213° |
| 2026-04-22 21:13 | 40.49432 | 72.73520 | 39960 ft | 421 kts | 211° |
| 2026-04-22 21:14 | 40.44157 | 72.70146 | 39960 ft | 422 kts | 211° |
| 2026-04-22 21:14 | 40.38857 | 72.66828 | 39953 ft | 422 kts | 210° |
| 2026-04-22 21:15 | 40.33546 | 72.63538 | 39955 ft | 422 kts | 210° |
| 2026-04-22 21:15 | 40.28237 | 72.60268 | 39949 ft | 422 kts | 210° |
| 2026-04-22 21:16 | 40.22920 | 72.57018 | 39943 ft | 421 kts | 210° |
| 2026-04-22 21:16 | 40.17604 | 72.53773 | 39954 ft | 422 kts | 210° |
| 2026-04-22 21:17 | 40.12283 | 72.50525 | 39960 ft | 423 kts | 210° |
| 2026-04-22 21:17 | 40.06951 | 72.47276 | 39953 ft | 423 kts | 210° |
| 2026-04-22 21:18 | 40.01622 | 72.44034 | 39953 ft | 422 kts | 210° |
| 2026-04-22 21:18 | 39.96299 | 72.40798 | 39956 ft | 422 kts | 210° |
| 2026-04-22 21:19 | 39.91012 | 72.37579 | 39964 ft | 422 kts | 210° |
| 2026-04-22 21:19 | 39.85687 | 72.34351 | 39970 ft | 422 kts | 210° |
| 2026-04-22 21:20 | 39.80361 | 72.31130 | 39976 ft | 422 kts | 210° |
| 2026-04-22 21:20 | 39.75053 | 72.27927 | 39977 ft | 420 kts | 210° |
| 2026-04-22 21:21 | 39.69741 | 72.24733 | 39985 ft | 421 kts | 210° |
| 2026-04-22 21:21 | 39.64426 | 72.21531 | 40016 ft | 422 kts | 210° |
| 2026-04-22 21:22 | 39.59099 | 72.18316 | 40023 ft | 423 kts | 208° |
| 2026-04-22 21:22 | 39.53766 | 72.15090 | 40027 ft | 423 kts | 210° |
| 2026-04-22 21:23 | 39.48415 | 72.11894 | 40036 ft | 424 kts | 210° |
| 2026-04-22 21:23 | 39.43064 | 72.08695 | 40046 ft | 424 kts | 210° |
| 2026-04-22 21:24 | 39.37688 | 72.05536 | 40068 ft | 425 kts | 208° |
| 2026-04-22 21:24 | 39.32248 | 72.02542 | 40073 ft | 425 kts | 208° |
| 2026-04-22 21:25 | 39.26792 | 71.99595 | 40080 ft | 425 kts | 208° |
| 2026-04-22 21:25 | 39.21333 | 71.96675 | 40105 ft | 425 kts | 207° |
| 2026-04-22 21:26 | 39.15891 | 71.93774 | 40097 ft | 422 kts | 208° |
| 2026-04-22 21:26 | 39.10480 | 71.90901 | 40111 ft | 421 kts | 207° |
| 2026-04-22 21:27 | 39.05057 | 71.88010 | 40089 ft | 422 kts | 207° |
| 2026-04-22 21:27 | 38.99669 | 71.85142 | 40094 ft | 422 kts | 207° |
| 2026-04-22 21:28 | 38.94250 | 71.82269 | 40069 ft | 420 kts | 207° |
| 2026-04-22 21:28 | 38.88842 | 71.79410 | 40114 ft | 421 kts | 207° |
| 2026-04-22 21:29 | 38.83420 | 71.76538 | 40132 ft | 423 kts | 207° |
| 2026-04-22 21:29 | 38.78015 | 71.73669 | 40064 ft | 417 kts | 207° |
| 2026-04-22 21:30 | 38.72625 | 71.70851 | 40133 ft | 419 kts | 207° |
| 2026-04-22 21:30 | 38.67221 | 71.68008 | 40128 ft | 420 kts | 207° |
| 2026-04-22 21:31 | 38.61797 | 71.65171 | 40141 ft | 423 kts | 204° |
| 2026-04-22 21:31 | 38.58894 | 71.64338 | 40174 ft | 433 kts | 193° |
| 2026-04-22 21:31 | 38.55890 | 71.63978 | 40076 ft | 433 kts | 190° |
| 2026-04-22 21:32 | 38.49854 | 71.63611 | 40076 ft | 434 kts | 188° |
| 2026-04-22 21:32 | 38.43816 | 71.63444 | 40248 ft | 434 kts | 187° |
| 2026-04-22 21:33 | 38.37855 | 71.63359 | 40036 ft | 432 kts | 187° |
| 2026-04-22 21:33 | 38.31843 | 71.63322 | 40033 ft | 431 kts | 187° |
| 2026-04-22 21:34 | 38.25853 | 71.63294 | 40145 ft | 429 kts | 187° |
| 2026-04-22 21:34 | 38.19912 | 71.63266 | 40154 ft | 427 kts | 187° |
| 2026-04-22 21:35 | 38.13966 | 71.63269 | 40248 ft | 428 kts | 187° |
| 2026-04-22 21:35 | 38.07986 | 71.63268 | 40406 ft | 431 kts | 187° |
| 2026-04-22 21:36 | 38.01958 | 71.63259 | 40575 ft | 434 kts | 186° |
| 2026-04-22 21:36 | 37.95901 | 71.63249 | 40691 ft | 436 kts | 186° |
| 2026-04-22 21:37 | 37.89834 | 71.63237 | 40843 ft | 436 kts | 186° |
| 2026-04-22 21:37 | 37.83752 | 71.63229 | 40995 ft | 437 kts | 186° |
| 2026-04-22 21:38 | 37.77655 | 71.63219 | 41116 ft | 439 kts | 186° |
| 2026-04-22 21:38 | 37.71513 | 71.63205 | 41152 ft | 443 kts | 186° |
| 2026-04-22 21:39 | 37.65318 | 71.63189 | 41159 ft | 447 kts | 186° |
| 2026-04-22 21:39 | 37.59092 | 71.63175 | 41161 ft | 448 kts | 186° |
| 2026-04-22 21:40 | 37.52839 | 71.63162 | 41167 ft | 450 kts | 186° |
| 2026-04-22 21:40 | 37.46607 | 71.63153 | 41173 ft | 452 kts | 186° |
| 2026-04-22 21:41 | 37.40308 | 71.63141 | 41173 ft | 453 kts | 186° |
| 2026-04-22 21:41 | 37.34007 | 71.63140 | 41102 ft | 451 kts | 186° |
| 2026-04-22 21:42 | 37.27759 | 71.63123 | 41119 ft | 448 kts | 186° |
| 2026-04-22 21:42 | 37.21530 | 71.63104 | 41146 ft | 448 kts | 186° |
| 2026-04-22 21:43 | 37.15272 | 71.63097 | 41180 ft | 451 kts | 186° |
| 2026-04-22 21:43 | 37.08973 | 71.63080 | 41177 ft | 454 kts | 185° |
| 2026-04-22 21:44 | 37.02642 | 71.63066 | 41169 ft | 456 kts | 185° |
| 2026-04-22 21:44 | 36.96300 | 71.63051 | 41159 ft | 456 kts | 185° |
| 2026-04-22 21:45 | 36.89949 | 71.63040 | 41159 ft | 456 kts | 185° |
| 2026-04-22 21:45 | 36.83591 | 71.63032 | 41175 ft | 458 kts | 185° |
| 2026-04-22 21:46 | 36.77209 | 71.63019 | 41186 ft | 460 kts | 185° |
| 2026-04-22 21:46 | 36.70800 | 71.63009 | 41165 ft | 461 kts | 185° |
| 2026-04-22 21:47 | 36.64380 | 71.63040 | 41207 ft | 462 kts | 184° |
| 2026-04-22 21:47 | 36.57940 | 71.63122 | 41188 ft | 462 kts | 184° |
| 2026-04-22 21:48 | 36.51504 | 71.63207 | 41185 ft | 463 kts | 184° |
| 2026-04-22 21:48 | 36.45128 | 71.62746 | 41165 ft | 457 kts | 191° |
| 2026-04-22 21:49 | 36.38823 | 71.61763 | 41175 ft | 456 kts | 192° |
| 2026-04-22 21:49 | 36.32540 | 71.60639 | 41166 ft | 456 kts | 193° |
| 2026-04-22 21:50 | 36.26269 | 71.59462 | 41163 ft | 456 kts | 192° |
| 2026-04-22 21:50 | 36.19956 | 71.59155 | 41183 ft | 465 kts | 170° |
| 2026-04-22 21:51 | 36.16881 | 71.60533 | 41204 ft | 475 kts | 159° |
| 2026-04-22 21:51 | 36.13918 | 71.62371 | 41170 ft | 477 kts | 156° |
| 2026-04-22 21:52 | 36.05199 | 71.68372 | 41120 ft | 478 kts | 155° |
| 2026-04-22 21:52 | 35.99435 | 71.72457 | 41152 ft | 478 kts | 155° |
| 2026-04-22 21:53 | 35.93639 | 71.76530 | 41151 ft | 480 kts | 155° |
| 2026-04-22 21:53 | 35.87590 | 71.79439 | 41174 ft | 464 kts | 180° |
| 2026-04-22 21:54 | 35.81226 | 71.79035 | 41155 ft | 458 kts | 191° |
| 2026-04-22 21:54 | 35.74899 | 71.78025 | 41137 ft | 459 kts | 192° |
| 2026-04-22 21:55 | 35.68564 | 71.76927 | 41125 ft | 460 kts | 192° |
| 2026-04-22 21:55 | 35.62223 | 71.75837 | 41104 ft | 459 kts | 191° |
| 2026-04-22 21:56 | 35.55887 | 71.74827 | 41108 ft | 459 kts | 191° |
| 2026-04-22 21:56 | 35.50562 | 71.74025 | 41098 ft | 461 kts | 191° |
| 2026-04-22 21:57 | 35.44194 | 71.73073 | 41081 ft | 461 kts | 190° |
| 2026-04-22 21:57 | 35.37823 | 71.72129 | 41069 ft | 462 kts | 191° |
| 2026-04-22 21:58 | 35.31438 | 71.71184 | 41055 ft | 463 kts | 191° |
| 2026-04-22 21:58 | 35.25085 | 71.70245 | 41039 ft | 463 kts | 190° |
| 2026-04-22 21:59 | 35.18643 | 71.69297 | 41024 ft | 464 kts | 191° |
| 2026-04-22 21:59 | 35.12278 | 71.68356 | 41016 ft | 464 kts | 191° |
| 2026-04-22 22:00 | 35.05870 | 71.67413 | 40989 ft | 464 kts | 191° |
| 2026-04-22 22:00 | 34.99460 | 71.66466 | 40986 ft | 464 kts | 190° |
| 2026-04-22 22:01 | 34.93036 | 71.65522 | 40963 ft | 465 kts | 191° |
| 2026-04-22 22:01 | 34.86615 | 71.64580 | 40948 ft | 465 kts | 191° |
| 2026-04-22 22:02 | 34.80187 | 71.63639 | 40931 ft | 465 kts | 190° |
| 2026-04-22 22:02 | 34.73759 | 71.62699 | 40924 ft | 466 kts | 190° |
| 2026-04-22 22:03 | 34.67321 | 71.61758 | 40919 ft | 466 kts | 190° |
| 2026-04-22 22:03 | 34.60883 | 71.60817 | 40907 ft | 466 kts | 190° |
| 2026-04-22 22:04 | 34.54444 | 71.59880 | 40902 ft | 466 kts | 190° |
| 2026-04-22 22:04 | 34.48006 | 71.58944 | 40899 ft | 466 kts | 191° |
| 2026-04-22 22:05 | 34.41564 | 71.58008 | 40892 ft | 467 kts | 191° |
| 2026-04-22 22:05 | 34.35112 | 71.57071 | 40889 ft | 467 kts | 190° |
| 2026-04-22 22:06 | 34.28656 | 71.56137 | 40882 ft | 467 kts | 190° |
| 2026-04-22 22:06 | 34.22194 | 71.55204 | 40879 ft | 468 kts | 190° |
| 2026-04-22 22:07 | 34.15728 | 71.54273 | 40877 ft | 468 kts | 190° |
| 2026-04-22 22:07 | 34.09297 | 71.53348 | 40877 ft | 469 kts | 190° |
| 2026-04-22 22:08 | 34.02771 | 71.52409 | 40880 ft | 469 kts | 191° |
| 2026-04-22 22:08 | 33.99504 | 71.52193 | 40898 ft | 475 kts | 178° |
| 2026-04-22 22:08 | 33.96299 | 71.53017 | 40920 ft | 484 kts | 162° |
| 2026-04-22 22:09 | 33.90348 | 71.56993 | 40885 ft | 493 kts | 151° |
| 2026-04-22 22:09 | 33.84603 | 71.61511 | 40874 ft | 494 kts | 150° |
| 2026-04-22 22:10 | 33.78878 | 71.66092 | 40869 ft | 494 kts | 150° |
| 2026-04-22 22:10 | 33.73136 | 71.70652 | 40856 ft | 495 kts | 150° |
| 2026-04-22 22:11 | 33.67377 | 71.75170 | 40848 ft | 494 kts | 150° |
| 2026-04-22 22:11 | 33.61608 | 71.79646 | 40847 ft | 494 kts | 150° |
| 2026-04-22 22:12 | 33.55878 | 71.84180 | 40852 ft | 496 kts | 142° |
| 2026-04-22 22:12 | 33.53482 | 71.87183 | 40871 ft | 502 kts | 130° |
| 2026-04-22 22:12 | 33.51418 | 71.90569 | 40850 ft | 504 kts | 127° |
| 2026-04-22 22:13 | 33.47498 | 71.97531 | 40833 ft | 504 kts | 126° |
| 2026-04-22 22:13 | 33.43662 | 72.04569 | 40828 ft | 504 kts | 125° |
| 2026-04-22 22:14 | 33.39855 | 72.11610 | 40827 ft | 504 kts | 125° |
| 2026-04-22 22:14 | 33.36049 | 72.18647 | 40829 ft | 504 kts | 125° |
| 2026-04-22 22:15 | 33.32243 | 72.25671 | 40827 ft | 503 kts | 125° |
| 2026-04-22 22:15 | 33.28434 | 72.32685 | 40830 ft | 503 kts | 125° |
| 2026-04-22 22:16 | 33.24620 | 72.39692 | 40833 ft | 503 kts | 125° |
| 2026-04-22 22:16 | 33.20829 | 72.46641 | 40831 ft | 503 kts | 125° |
| 2026-04-22 22:17 | 33.17009 | 72.53629 | 40834 ft | 503 kts | 125° |
| 2026-04-22 22:17 | 33.13183 | 72.60613 | 40836 ft | 503 kts | 125° |
| 2026-04-22 22:18 | 33.09353 | 72.67592 | 40839 ft | 503 kts | 125° |
| 2026-04-22 22:18 | 33.05514 | 72.74573 | 40839 ft | 504 kts | 125° |
| 2026-04-22 22:19 | 33.01667 | 72.81554 | 40840 ft | 504 kts | 125° |
| 2026-04-22 22:19 | 32.97817 | 72.88527 | 40837 ft | 504 kts | 125° |
| 2026-04-22 22:20 | 32.93964 | 72.95491 | 40835 ft | 503 kts | 125° |
| 2026-04-22 22:20 | 32.90111 | 73.02446 | 40831 ft | 503 kts | 125° |
| 2026-04-22 22:21 | 32.86256 | 73.09390 | 40828 ft | 503 kts | 125° |
| 2026-04-22 22:21 | 32.82398 | 73.16331 | 40819 ft | 503 kts | 125° |
| 2026-04-22 22:22 | 32.78526 | 73.23253 | 40812 ft | 502 kts | 129° |
| 2026-04-22 22:22 | 32.73601 | 73.29035 | 40813 ft | 498 kts | 142° |
| 2026-04-22 22:23 | 32.68247 | 73.34261 | 40801 ft | 498 kts | 143° |
| 2026-04-22 22:23 | 32.62827 | 73.39391 | 40793 ft | 498 kts | 144° |
| 2026-04-22 22:24 | 32.57385 | 73.44483 | 40791 ft | 499 kts | 144° |
| 2026-04-22 22:24 | 32.51962 | 73.49533 | 40786 ft | 499 kts | 144° |
| 2026-04-22 22:25 | 32.46494 | 73.54609 | 40787 ft | 499 kts | 144° |
| 2026-04-22 22:25 | 32.41022 | 73.59678 | 40786 ft | 500 kts | 144° |
| 2026-04-22 22:26 | 32.35544 | 73.64744 | 40785 ft | 500 kts | 144° |
| 2026-04-22 22:26 | 32.30064 | 73.69801 | 40786 ft | 500 kts | 144° |
| 2026-04-22 22:27 | 32.24577 | 73.74855 | 40787 ft | 500 kts | 144° |
| 2026-04-22 22:27 | 32.19086 | 73.79903 | 40787 ft | 500 kts | 144° |
| 2026-04-22 22:28 | 32.13591 | 73.84949 | 40786 ft | 501 kts | 144° |
| 2026-04-22 22:28 | 32.08090 | 73.89991 | 40787 ft | 501 kts | 144° |
| 2026-04-22 22:29 | 32.02581 | 73.95032 | 40778 ft | 501 kts | 144° |
| 2026-04-22 22:29 | 31.97072 | 74.00065 | 40777 ft | 502 kts | 144° |
| 2026-04-22 22:30 | 31.91554 | 74.05098 | 40769 ft | 502 kts | 144° |
| 2026-04-22 22:30 | 31.86031 | 74.10128 | 40769 ft | 502 kts | 144° |
| 2026-04-22 22:31 | 31.80502 | 74.15157 | 40765 ft | 502 kts | 144° |
| 2026-04-22 22:31 | 31.74970 | 74.20180 | 40755 ft | 503 kts | 144° |
| 2026-04-22 22:32 | 31.69695 | 74.24962 | 40748 ft | 503 kts | 144° |
| 2026-04-22 22:32 | 31.64191 | 74.29945 | 40748 ft | 503 kts | 144° |
| 2026-04-22 22:33 | 31.58646 | 74.34957 | 40742 ft | 503 kts | 144° |
| 2026-04-22 22:33 | 31.53099 | 74.39963 | 40747 ft | 503 kts | 144° |
| 2026-04-22 22:34 | 31.47545 | 74.44969 | 40745 ft | 504 kts | 144° |
| 2026-04-22 22:34 | 31.41988 | 74.49970 | 40746 ft | 504 kts | 144° |
| 2026-04-22 22:35 | 31.36488 | 74.55054 | 40747 ft | 505 kts | 135° |
| 2026-04-22 22:35 | 31.34308 | 74.58268 | 40768 ft | 506 kts | 119° |
| 2026-04-22 22:35 | 31.32876 | 74.62028 | 40771 ft | 507 kts | 108° |
| 2026-04-22 22:36 | 31.30849 | 74.69924 | 40742 ft | 508 kts | 105° |
| 2026-04-22 22:36 | 31.28983 | 74.77889 | 40735 ft | 508 kts | 104° |
| 2026-04-22 22:37 | 31.27123 | 74.85863 | 40729 ft | 508 kts | 105° |
| 2026-04-22 22:37 | 31.25231 | 74.93826 | 40732 ft | 509 kts | 105° |
| 2026-04-22 22:38 | 31.23305 | 75.01780 | 40733 ft | 509 kts | 105° |
| 2026-04-22 22:38 | 31.21363 | 75.09713 | 40687 ft | 503 kts | 106° |
| 2026-04-22 22:39 | 31.19425 | 75.17548 | 40727 ft | 502 kts | 106° |
| 2026-04-22 22:39 | 31.17462 | 75.25363 | 40730 ft | 502 kts | 107° |
| 2026-04-22 22:40 | 31.15485 | 75.33176 | 40730 ft | 502 kts | 107° |
| 2026-04-22 22:40 | 31.13500 | 75.40981 | 40728 ft | 502 kts | 107° |
| 2026-04-22 22:41 | 31.11360 | 75.48731 | 40734 ft | 502 kts | 110° |
| 2026-04-22 22:41 | 31.08944 | 75.56307 | 40729 ft | 502 kts | 111° |
| 2026-04-22 22:42 | 31.06443 | 75.63905 | 40731 ft | 502 kts | 112° |
| 2026-04-22 22:42 | 31.03918 | 75.71495 | 40728 ft | 502 kts | 112° |
| 2026-04-22 22:43 | 31.01384 | 75.79076 | 40733 ft | 502 kts | 112° |
| 2026-04-22 22:43 | 30.98843 | 75.86656 | 40730 ft | 502 kts | 112° |
| 2026-04-22 22:44 | 30.96710 | 75.93004 | 40731 ft | 502 kts | 112° |
| 2026-04-22 22:44 | 30.94160 | 76.00579 | 40732 ft | 502 kts | 112° |
| 2026-04-22 22:45 | 30.91605 | 76.08154 | 40732 ft | 502 kts | 112° |
| 2026-04-22 22:45 | 30.89045 | 76.15723 | 40729 ft | 502 kts | 112° |
| 2026-04-22 22:46 | 30.86483 | 76.23287 | 40732 ft | 502 kts | 112° |
| 2026-04-22 22:46 | 30.83915 | 76.30849 | 40729 ft | 502 kts | 112° |
| 2026-04-22 22:47 | 30.81340 | 76.38409 | 40727 ft | 502 kts | 112° |
| 2026-04-22 22:47 | 30.78764 | 76.45961 | 40723 ft | 502 kts | 112° |
| 2026-04-22 22:48 | 30.76182 | 76.53509 | 40729 ft | 502 kts | 112° |
| 2026-04-22 22:48 | 30.73596 | 76.61055 | 40729 ft | 502 kts | 112° |
| 2026-04-22 22:49 | 30.71024 | 76.68540 | 40733 ft | 502 kts | 112° |
| 2026-04-22 22:49 | 30.68126 | 76.75888 | 40743 ft | 500 kts | 123° |
| 2026-04-22 22:50 | 30.64208 | 76.82547 | 40740 ft | 499 kts | 127° |
| 2026-04-22 22:50 | 30.60102 | 76.89046 | 40744 ft | 499 kts | 128° |
| 2026-04-22 22:51 | 30.55938 | 76.95485 | 40743 ft | 499 kts | 128° |
| 2026-04-22 22:51 | 30.51750 | 77.01905 | 40744 ft | 499 kts | 128° |
| 2026-04-22 22:52 | 30.47558 | 77.08310 | 40747 ft | 499 kts | 128° |
| 2026-04-22 22:52 | 30.43365 | 77.14705 | 40748 ft | 498 kts | 128° |
| 2026-04-22 22:53 | 30.38475 | 77.20257 | 40774 ft | 492 kts | 150° |
| 2026-04-22 22:53 | 30.32515 | 77.24153 | 40748 ft | 492 kts | 154° |
| 2026-04-22 22:54 | 30.26438 | 77.27791 | 40741 ft | 492 kts | 155° |
| 2026-04-22 22:54 | 30.20331 | 77.31354 | 40733 ft | 492 kts | 155° |
| 2026-04-22 22:55 | 30.14212 | 77.34900 | 40732 ft | 492 kts | 155° |
| 2026-04-22 22:55 | 30.05087 | 77.40191 | 40732 ft | 492 kts | 155° |
| 2026-04-22 22:56 | 29.99125 | 77.44063 | 40734 ft | 493 kts | 147° |
| 2026-04-22 22:56 | 29.93551 | 77.48696 | 40728 ft | 494 kts | 144° |
| 2026-04-22 22:57 | 29.88072 | 77.53480 | 40728 ft | 494 kts | 144° |
| 2026-04-22 22:57 | 29.82621 | 77.58316 | 40731 ft | 494 kts | 144° |
| 2026-04-22 22:58 | 29.77184 | 77.63161 | 40732 ft | 494 kts | 144° |
| 2026-04-22 22:58 | 29.71747 | 77.68009 | 40736 ft | 494 kts | 144° |
| 2026-04-22 22:59 | 29.66314 | 77.72850 | 40736 ft | 494 kts | 144° |
| 2026-04-22 22:59 | 29.60882 | 77.77693 | 40726 ft | 494 kts | 144° |
| 2026-04-22 23:00 | 29.55486 | 77.82501 | 40730 ft | 494 kts | 144° |
| 2026-04-22 23:00 | 29.50055 | 77.87335 | 40729 ft | 494 kts | 144° |
| 2026-04-22 23:01 | 29.44630 | 77.92160 | 40727 ft | 494 kts | 144° |
| 2026-04-22 23:01 | 29.39197 | 77.96984 | 40726 ft | 494 kts | 144° |
| 2026-04-22 23:02 | 29.33767 | 78.01800 | 40730 ft | 493 kts | 144° |
| 2026-04-22 23:02 | 29.28336 | 78.06611 | 40730 ft | 493 kts | 144° |
| 2026-04-22 23:03 | 29.22905 | 78.11415 | 40730 ft | 493 kts | 144° |
| 2026-04-22 23:03 | 29.17474 | 78.16214 | 40730 ft | 493 kts | 144° |
| 2026-04-22 23:04 | 29.12038 | 78.21011 | 40727 ft | 493 kts | 144° |
| 2026-04-22 23:04 | 29.06608 | 78.25797 | 40729 ft | 493 kts | 144° |
| 2026-04-22 23:05 | 29.01172 | 78.30581 | 40732 ft | 493 kts | 144° |
| 2026-04-22 23:05 | 28.95734 | 78.35359 | 40730 ft | 493 kts | 144° |
| 2026-04-22 23:06 | 28.90292 | 78.40135 | 40725 ft | 493 kts | 144° |
| 2026-04-22 23:06 | 28.84852 | 78.44903 | 40729 ft | 493 kts | 144° |
| 2026-04-22 23:07 | 28.79410 | 78.49666 | 40731 ft | 493 kts | 144° |
| 2026-04-22 23:07 | 28.73967 | 78.54423 | 40731 ft | 493 kts | 144° |
| 2026-04-22 23:08 | 28.68523 | 78.59175 | 40732 ft | 493 kts | 144° |
| 2026-04-22 23:08 | 28.63116 | 78.63888 | 40729 ft | 493 kts | 145° |
| 2026-04-22 23:09 | 28.57668 | 78.68632 | 40728 ft | 493 kts | 145° |
| 2026-04-22 23:09 | 28.52221 | 78.73367 | 40754 ft | 493 kts | 145° |
| 2026-04-22 23:10 | 28.46908 | 78.78292 | 40754 ft | 494 kts | 139° |
| 2026-04-22 23:10 | 28.41939 | 78.83704 | 40750 ft | 495 kts | 137° |
| 2026-04-22 23:11 | 28.37045 | 78.89211 | 40747 ft | 495 kts | 137° |
| 2026-04-22 23:11 | 28.32172 | 78.94740 | 40743 ft | 495 kts | 137° |
| 2026-04-22 23:12 | 28.27301 | 79.00277 | 40747 ft | 496 kts | 137° |
| 2026-04-22 23:12 | 28.22434 | 79.05808 | 40742 ft | 496 kts | 137° |
| 2026-04-22 23:13 | 28.17558 | 79.11340 | 40739 ft | 496 kts | 137° |
| 2026-04-22 23:13 | 28.12682 | 79.16866 | 40738 ft | 496 kts | 137° |
| 2026-04-22 23:14 | 28.07802 | 79.22390 | 40733 ft | 496 kts | 137° |
| 2026-04-22 23:14 | 28.02915 | 79.27915 | 40733 ft | 496 kts | 137° |
| 2026-04-22 23:15 | 27.98025 | 79.33435 | 40730 ft | 497 kts | 137° |
| 2026-04-22 23:15 | 27.93133 | 79.38949 | 40734 ft | 497 kts | 137° |
| 2026-04-22 23:16 | 27.88233 | 79.44465 | 40750 ft | 497 kts | 137° |
| 2026-04-22 23:16 | 27.83330 | 79.49978 | 40730 ft | 497 kts | 137° |
| 2026-04-22 23:17 | 27.78424 | 79.55487 | 40730 ft | 497 kts | 137° |
| 2026-04-22 23:17 | 27.73511 | 79.60995 | 40729 ft | 498 kts | 137° |
| 2026-04-22 23:18 | 27.68752 | 79.66682 | 40734 ft | 499 kts | 134° |
| 2026-04-22 23:18 | 27.64212 | 79.72618 | 40742 ft | 500 kts | 133° |
| 2026-04-22 23:19 | 27.59715 | 79.78602 | 40729 ft | 500 kts | 132° |
| 2026-04-22 23:19 | 27.55227 | 79.84598 | 40742 ft | 500 kts | 133° |
| 2026-04-22 23:20 | 27.50770 | 79.90552 | 40732 ft | 501 kts | 133° |
| 2026-04-22 23:20 | 27.46279 | 79.96546 | 40745 ft | 501 kts | 133° |
| 2026-04-22 23:21 | 27.41781 | 80.02540 | 40745 ft | 501 kts | 133° |
| 2026-04-22 23:21 | 27.37283 | 80.08529 | 40735 ft | 501 kts | 133° |
| 2026-04-22 23:22 | 27.32779 | 80.14514 | 40742 ft | 501 kts | 133° |
| 2026-04-22 23:22 | 27.28268 | 80.20500 | 40738 ft | 502 kts | 133° |
| 2026-04-22 23:23 | 27.23754 | 80.26483 | 40747 ft | 502 kts | 133° |
| 2026-04-22 23:23 | 27.19235 | 80.32464 | 40743 ft | 502 kts | 133° |
| 2026-04-22 23:24 | 27.14715 | 80.38439 | 40742 ft | 502 kts | 133° |
| 2026-04-22 23:24 | 27.10189 | 80.44411 | 40745 ft | 502 kts | 133° |
| 2026-04-22 23:25 | 27.05660 | 80.50380 | 40746 ft | 502 kts | 133° |
| 2026-04-22 23:25 | 27.01125 | 80.56349 | 40746 ft | 503 kts | 134° |
| 2026-04-22 23:26 | 26.96587 | 80.62313 | 40746 ft | 503 kts | 134° |
| 2026-04-22 23:26 | 26.92048 | 80.68271 | 40745 ft | 503 kts | 134° |
| 2026-04-22 23:27 | 26.87505 | 80.74227 | 40745 ft | 503 kts | 134° |
| 2026-04-22 23:27 | 26.82957 | 80.80180 | 40741 ft | 503 kts | 134° |
| 2026-04-22 23:28 | 26.78406 | 80.86130 | 40745 ft | 503 kts | 133° |
| 2026-04-22 23:28 | 26.74114 | 80.92273 | 40743 ft | 505 kts | 130° |
| 2026-04-22 23:29 | 26.69934 | 80.98597 | 40746 ft | 506 kts | 130° |
| 2026-04-22 23:29 | 26.65781 | 81.04950 | 40745 ft | 506 kts | 130° |
| 2026-04-22 23:30 | 26.61630 | 81.11311 | 40750 ft | 507 kts | 130° |
| 2026-04-22 23:30 | 26.57474 | 81.17676 | 40747 ft | 507 kts | 130° |
| 2026-04-22 23:31 | 26.53315 | 81.24039 | 40748 ft | 507 kts | 130° |
| 2026-04-22 23:31 | 26.49824 | 81.29371 | 40749 ft | 508 kts | 130° |
| 2026-04-22 23:32 | 26.45679 | 81.35694 | 40746 ft | 508 kts | 130° |
| 2026-04-22 23:32 | 26.41497 | 81.42066 | 40747 ft | 509 kts | 130° |
| 2026-04-22 23:33 | 26.37306 | 81.48441 | 40744 ft | 510 kts | 131° |
| 2026-04-22 23:33 | 26.33106 | 81.54818 | 40744 ft | 511 kts | 131° |
| 2026-04-22 23:34 | 26.28897 | 81.61201 | 40747 ft | 511 kts | 131° |
| 2026-04-22 23:34 | 26.24678 | 81.67591 | 40740 ft | 512 kts | 131° |
| 2026-04-22 23:35 | 26.20448 | 81.73988 | 40739 ft | 513 kts | 131° |
| 2026-04-22 23:35 | 26.16209 | 81.80389 | 40741 ft | 514 kts | 131° |
| 2026-04-22 23:36 | 26.11961 | 81.86797 | 40736 ft | 515 kts | 131° |
| 2026-04-22 23:36 | 26.07702 | 81.93211 | 40737 ft | 516 kts | 132° |
| 2026-04-22 23:37 | 26.03435 | 81.99628 | 40739 ft | 516 kts | 132° |
| 2026-04-22 23:37 | 25.99158 | 82.06050 | 40738 ft | 517 kts | 132° |
| 2026-04-22 23:38 | 25.94874 | 82.12477 | 40733 ft | 518 kts | 133° |
| 2026-04-22 23:38 | 25.90578 | 82.18910 | 40733 ft | 519 kts | 133° |
| 2026-04-22 23:39 | 25.86277 | 82.25342 | 40733 ft | 519 kts | 133° |
| 2026-04-22 23:39 | 25.81964 | 82.31782 | 40731 ft | 520 kts | 133° |
| 2026-04-22 23:40 | 25.77648 | 82.38218 | 40737 ft | 520 kts | 133° |
| 2026-04-22 23:40 | 25.73353 | 82.44613 | 40731 ft | 521 kts | 133° |
| 2026-04-22 23:41 | 25.69020 | 82.51054 | 40725 ft | 521 kts | 134° |
| 2026-04-22 23:41 | 25.64687 | 82.57488 | 40725 ft | 521 kts | 134° |
| 2026-04-22 23:42 | 25.60347 | 82.63922 | 40725 ft | 521 kts | 134° |
| 2026-04-22 23:42 | 25.56002 | 82.70352 | 40719 ft | 521 kts | 134° |
| 2026-04-22 23:43 | 25.51656 | 82.76775 | 40722 ft | 521 kts | 134° |
| 2026-04-22 23:43 | 25.47294 | 82.83187 | 40721 ft | 520 kts | 135° |
| 2026-04-22 23:44 | 25.42752 | 82.89388 | 40721 ft | 518 kts | 137° |
| 2026-04-22 23:44 | 25.38123 | 82.95482 | 40720 ft | 517 kts | 138° |
| 2026-04-22 23:45 | 25.33470 | 83.01551 | 40723 ft | 517 kts | 138° |
| 2026-04-22 23:45 | 25.28840 | 83.07569 | 40727 ft | 517 kts | 139° |
| 2026-04-22 23:46 | 25.24172 | 83.13624 | 40723 ft | 517 kts | 139° |
| 2026-04-22 23:46 | 25.19502 | 83.19673 | 40726 ft | 517 kts | 139° |
| 2026-04-22 23:47 | 25.14828 | 83.25716 | 40739 ft | 517 kts | 139° |
| 2026-04-22 23:47 | 25.10150 | 83.31757 | 40736 ft | 518 kts | 139° |
| 2026-04-22 23:48 | 25.05472 | 83.37791 | 40736 ft | 518 kts | 139° |
| 2026-04-22 23:48 | 25.00787 | 83.43826 | 40739 ft | 518 kts | 139° |
| 2026-04-22 23:49 | 24.96099 | 83.49858 | 40744 ft | 518 kts | 139° |
| 2026-04-22 23:49 | 24.91408 | 83.55883 | 40747 ft | 518 kts | 139° |
| 2026-04-22 23:50 | 24.86722 | 83.61900 | 40747 ft | 517 kts | 139° |
| 2026-04-22 23:50 | 24.82031 | 83.67912 | 40746 ft | 517 kts | 139° |
| 2026-04-22 23:51 | 24.77337 | 83.73922 | 40747 ft | 518 kts | 139° |
| 2026-04-22 23:51 | 24.72640 | 83.79929 | 40748 ft | 518 kts | 139° |
| 2026-04-22 23:52 | 24.67970 | 83.85894 | 40744 ft | 518 kts | 139° |
| 2026-04-22 23:52 | 24.63265 | 83.91894 | 40744 ft | 518 kts | 139° |
| 2026-04-22 23:53 | 24.58563 | 83.97884 | 40749 ft | 518 kts | 139° |
| 2026-04-22 23:53 | 24.53854 | 84.03878 | 40748 ft | 518 kts | 139° |
| 2026-04-22 23:54 | 24.49145 | 84.09861 | 40748 ft | 518 kts | 139° |
| 2026-04-22 23:54 | 24.44430 | 84.15845 | 40751 ft | 518 kts | 139° |
| 2026-04-22 23:55 | 24.39714 | 84.21824 | 40748 ft | 518 kts | 139° |
| 2026-04-22 23:55 | 24.34990 | 84.27802 | 40753 ft | 518 kts | 139° |
| 2026-04-22 23:56 | 24.30270 | 84.33771 | 40756 ft | 518 kts | 139° |
| 2026-04-22 23:56 | 24.25544 | 84.39740 | 40759 ft | 518 kts | 139° |
| 2026-04-22 23:57 | 24.20813 | 84.45700 | 40763 ft | 518 kts | 140° |
| 2026-04-22 23:57 | 24.16071 | 84.51645 | 40767 ft | 518 kts | 140° |
| 2026-04-22 23:58 | 24.11324 | 84.57580 | 40770 ft | 518 kts | 140° |
| 2026-04-22 23:58 | 24.06570 | 84.63515 | 40768 ft | 518 kts | 140° |
| 2026-04-22 23:59 | 24.01815 | 84.69445 | 40776 ft | 518 kts | 140° |
| 2026-04-22 23:59 | 23.97056 | 84.75370 | 40796 ft | 519 kts | 140° |
| 2026-04-23 00:00 | 23.89909 | 84.84257 | 40788 ft | 519 kts | 140° |
| 2026-04-23 00:01 | 23.85141 | 84.90179 | 40802 ft | 519 kts | 140° |
| 2026-04-23 00:01 | 23.80399 | 84.96059 | 40789 ft | 519 kts | 140° |
| 2026-04-23 00:02 | 23.75624 | 85.01976 | 40784 ft | 519 kts | 140° |
| 2026-04-23 00:02 | 23.70852 | 85.07880 | 40805 ft | 519 kts | 140° |
| 2026-04-23 00:03 | 23.66078 | 85.13782 | 40806 ft | 518 kts | 140° |
| 2026-04-23 00:03 | 23.61306 | 85.19673 | 40811 ft | 518 kts | 140° |
| 2026-04-23 00:04 | 23.56531 | 85.25560 | 40810 ft | 518 kts | 140° |
| 2026-04-23 00:04 | 23.51752 | 85.31444 | 40807 ft | 518 kts | 140° |
| 2026-04-23 00:05 | 23.46966 | 85.37329 | 40808 ft | 519 kts | 140° |
| 2026-04-23 00:05 | 23.42175 | 85.43213 | 40807 ft | 519 kts | 140° |
| 2026-04-23 00:06 | 23.37379 | 85.49096 | 40803 ft | 519 kts | 140° |
| 2026-04-23 00:06 | 23.32614 | 85.54936 | 40796 ft | 519 kts | 140° |
| 2026-04-23 00:07 | 23.27816 | 85.60810 | 40795 ft | 519 kts | 140° |
| 2026-04-23 00:07 | 23.23014 | 85.66681 | 40792 ft | 519 kts | 140° |
| 2026-04-23 00:08 | 23.18213 | 85.72546 | 40786 ft | 519 kts | 140° |
| 2026-04-23 00:08 | 23.13407 | 85.78409 | 40784 ft | 519 kts | 140° |
| 2026-04-23 00:09 | 23.08600 | 85.84265 | 40779 ft | 519 kts | 140° |
| 2026-04-23 00:09 | 23.03791 | 85.90118 | 40778 ft | 519 kts | 140° |
| 2026-04-23 00:10 | 22.98979 | 85.95969 | 40775 ft | 520 kts | 140° |
| 2026-04-23 00:10 | 22.94162 | 86.01819 | 40773 ft | 520 kts | 140° |
| 2026-04-23 00:11 | 22.89339 | 86.07671 | 40773 ft | 520 kts | 140° |
| 2026-04-23 00:11 | 22.84511 | 86.13522 | 40775 ft | 521 kts | 140° |
| 2026-04-23 00:12 | 22.80033 | 86.19783 | 40774 ft | 529 kts | 132° |
| 2026-04-23 00:12 | 22.75865 | 86.26373 | 40773 ft | 531 kts | 131° |
| 2026-04-23 00:13 | 22.71754 | 86.33014 | 40768 ft | 531 kts | 131° |
| 2026-04-23 00:13 | 22.67655 | 86.39672 | 40771 ft | 531 kts | 131° |
| 2026-04-23 00:14 | 22.63556 | 86.46332 | 40772 ft | 532 kts | 131° |
| 2026-04-23 00:14 | 22.59454 | 86.52993 | 40770 ft | 532 kts | 131° |
| 2026-04-23 00:15 | 22.55352 | 86.59650 | 40770 ft | 532 kts | 131° |
| 2026-04-23 00:15 | 22.51243 | 86.66308 | 40774 ft | 532 kts | 131° |
| 2026-04-23 00:16 | 22.47130 | 86.72962 | 40770 ft | 532 kts | 131° |
| 2026-04-23 00:16 | 22.43020 | 86.79604 | 40770 ft | 532 kts | 131° |
| 2026-04-23 00:17 | 22.38906 | 86.86246 | 40768 ft | 532 kts | 131° |
| 2026-04-23 00:17 | 22.34819 | 86.92834 | 40768 ft | 531 kts | 131° |
| 2026-04-23 00:18 | 22.30700 | 86.99466 | 40771 ft | 531 kts | 131° |
| 2026-04-23 00:18 | 22.26553 | 87.06135 | 40766 ft | 531 kts | 131° |
| 2026-04-23 00:19 | 22.22459 | 87.12711 | 40768 ft | 531 kts | 130° |
| 2026-04-23 00:19 | 22.18336 | 87.19327 | 40762 ft | 531 kts | 130° |
| 2026-04-23 00:20 | 22.14212 | 87.25935 | 40768 ft | 531 kts | 131° |
| 2026-04-23 00:20 | 22.10781 | 87.31426 | 40766 ft | 531 kts | 131° |
| 2026-04-23 00:21 | 22.05958 | 87.39136 | 40762 ft | 531 kts | 131° |
| 2026-04-23 00:21 | 22.02527 | 87.44615 | 40761 ft | 530 kts | 131° |
| 2026-04-23 00:22 | 21.98398 | 87.51200 | 40765 ft | 530 kts | 131° |
| 2026-04-23 00:22 | 21.94266 | 87.57780 | 40769 ft | 530 kts | 131° |
| 2026-04-23 00:23 | 21.90132 | 87.64357 | 40765 ft | 530 kts | 131° |
| 2026-04-23 00:23 | 21.85997 | 87.70928 | 40768 ft | 530 kts | 130° |
| 2026-04-23 00:24 | 21.81862 | 87.77490 | 40771 ft | 530 kts | 131° |
| 2026-04-23 00:24 | 21.77726 | 87.84048 | 40768 ft | 530 kts | 131° |
| 2026-04-23 00:25 | 21.73587 | 87.90601 | 40773 ft | 529 kts | 131° |
| 2026-04-23 00:25 | 21.69446 | 87.97147 | 40775 ft | 529 kts | 130° |
| 2026-04-23 00:26 | 21.65304 | 88.03691 | 40774 ft | 529 kts | 130° |
| 2026-04-23 00:26 | 21.61158 | 88.10231 | 40777 ft | 529 kts | 131° |
| 2026-04-23 00:27 | 21.57012 | 88.16764 | 40779 ft | 529 kts | 131° |
| 2026-04-23 00:27 | 21.52861 | 88.23299 | 40775 ft | 529 kts | 131° |
| 2026-04-23 00:28 | 21.48711 | 88.29825 | 40779 ft | 529 kts | 131° |
| 2026-04-23 00:28 | 21.44557 | 88.36350 | 40789 ft | 529 kts | 131° |
| 2026-04-23 00:29 | 21.40401 | 88.42870 | 40782 ft | 529 kts | 131° |
| 2026-04-23 00:29 | 21.36243 | 88.49388 | 40789 ft | 529 kts | 130° |
| 2026-04-23 00:30 | 21.32116 | 88.55934 | 40790 ft | 530 kts | 130° |
| 2026-04-23 00:30 | 21.28044 | 88.62453 | 40794 ft | 530 kts | 130° |
| 2026-04-23 00:31 | 21.23949 | 88.69019 | 40792 ft | 530 kts | 130° |
| 2026-04-23 00:31 | 21.19856 | 88.75581 | 40788 ft | 529 kts | 130° |
| 2026-04-23 00:32 | 21.15764 | 88.82134 | 40793 ft | 529 kts | 130° |
| 2026-04-23 00:32 | 21.11668 | 88.88686 | 40800 ft | 529 kts | 130° |
| 2026-04-23 00:33 | 21.07570 | 88.95232 | 40800 ft | 529 kts | 130° |
| 2026-04-23 00:33 | 21.03474 | 89.01771 | 40799 ft | 529 kts | 130° |
| 2026-04-23 00:34 | 20.99372 | 89.08310 | 40802 ft | 529 kts | 130° |
| 2026-04-23 00:34 | 20.95273 | 89.14841 | 40802 ft | 529 kts | 130° |
| 2026-04-23 00:35 | 20.91086 | 89.21292 | 40804 ft | 527 kts | 132° |
| 2026-04-23 00:35 | 20.86749 | 89.27593 | 40801 ft | 526 kts | 133° |
| 2026-04-23 00:36 | 20.82377 | 89.33860 | 40802 ft | 526 kts | 133° |
| 2026-04-23 00:36 | 20.77995 | 89.40115 | 40807 ft | 525 kts | 133° |
| 2026-04-23 00:37 | 20.73610 | 89.46362 | 40807 ft | 525 kts | 133° |
| 2026-04-23 00:37 | 20.69226 | 89.52602 | 40809 ft | 525 kts | 133° |
| 2026-04-23 00:38 | 20.64842 | 89.58836 | 40810 ft | 525 kts | 133° |
| 2026-04-23 00:38 | 20.60455 | 89.65067 | 40807 ft | 525 kts | 133° |
| 2026-04-23 00:39 | 20.56072 | 89.71289 | 40810 ft | 524 kts | 133° |
| 2026-04-23 00:39 | 20.51685 | 89.77508 | 40814 ft | 524 kts | 133° |
| 2026-04-23 00:40 | 20.47331 | 89.83676 | 40813 ft | 524 kts | 133° |
| 2026-04-23 00:40 | 20.42950 | 89.89877 | 40814 ft | 523 kts | 133° |
| 2026-04-23 00:41 | 20.38569 | 89.96070 | 40817 ft | 523 kts | 133° |
| 2026-04-23 00:41 | 20.34191 | 90.02255 | 40816 ft | 522 kts | 133° |
| 2026-04-23 00:42 | 20.29815 | 90.08428 | 40818 ft | 522 kts | 133° |
| 2026-04-23 00:42 | 20.25442 | 90.14591 | 40818 ft | 521 kts | 133° |
| 2026-04-23 00:43 | 20.21070 | 90.20747 | 40826 ft | 521 kts | 133° |
| 2026-04-23 00:43 | 20.16702 | 90.26890 | 40824 ft | 520 kts | 133° |
| 2026-04-23 00:44 | 20.12334 | 90.33026 | 40825 ft | 520 kts | 133° |
| 2026-04-23 00:44 | 20.07971 | 90.39149 | 40824 ft | 519 kts | 133° |
| 2026-04-23 00:45 | 20.03609 | 90.45266 | 40825 ft | 519 kts | 133° |
| 2026-04-23 00:45 | 19.99249 | 90.51372 | 40825 ft | 518 kts | 133° |
| 2026-04-23 00:46 | 19.94889 | 90.57472 | 40826 ft | 518 kts | 133° |
| 2026-04-23 00:46 | 19.90532 | 90.63562 | 40823 ft | 517 kts | 133° |
| 2026-04-23 00:47 | 19.86175 | 90.69646 | 40825 ft | 517 kts | 133° |
| 2026-04-23 00:47 | 19.81845 | 90.75686 | 40824 ft | 517 kts | 133° |
| 2026-04-23 00:48 | 19.77489 | 90.81755 | 40821 ft | 517 kts | 133° |
| 2026-04-23 00:48 | 19.73131 | 90.87822 | 40826 ft | 517 kts | 133° |
| 2026-04-23 00:49 | 19.68772 | 90.93883 | 40820 ft | 517 kts | 133° |
| 2026-04-23 00:49 | 19.64411 | 90.99942 | 40826 ft | 516 kts | 133° |
| 2026-04-23 00:50 | 19.60049 | 91.05995 | 40825 ft | 516 kts | 133° |
| 2026-04-23 00:50 | 19.55684 | 91.12047 | 40825 ft | 516 kts | 133° |
| 2026-04-23 00:51 | 19.51318 | 91.18094 | 40821 ft | 516 kts | 132° |
| 2026-04-23 00:51 | 19.46952 | 91.24135 | 40823 ft | 516 kts | 133° |
| 2026-04-23 00:52 | 19.42584 | 91.30173 | 40821 ft | 516 kts | 132° |
| 2026-04-23 00:52 | 19.38212 | 91.36211 | 40822 ft | 516 kts | 132° |
| 2026-04-23 00:53 | 19.33842 | 91.42241 | 40820 ft | 516 kts | 133° |
| 2026-04-23 00:53 | 19.29465 | 91.48273 | 40822 ft | 516 kts | 133° |
| 2026-04-23 00:54 | 19.25091 | 91.54295 | 40825 ft | 516 kts | 133° |
| 2026-04-23 00:54 | 19.20710 | 91.60321 | 40822 ft | 516 kts | 133° |
| 2026-04-23 00:55 | 19.16331 | 91.66341 | 40826 ft | 516 kts | 132° |
| 2026-04-23 00:55 | 19.11951 | 91.72355 | 40825 ft | 516 kts | 132° |
| 2026-04-23 00:56 | 19.07567 | 91.78367 | 40827 ft | 516 kts | 132° |
| 2026-04-23 00:56 | 19.03216 | 91.84332 | 40825 ft | 516 kts | 132° |
| 2026-04-23 00:57 | 18.98834 | 91.90333 | 40824 ft | 516 kts | 132° |
| 2026-04-23 00:57 | 18.94453 | 91.96330 | 40828 ft | 515 kts | 132° |
| 2026-04-23 00:58 | 18.90045 | 92.02296 | 40833 ft | 515 kts | 133° |
| 2026-04-23 00:58 | 18.85619 | 92.08236 | 40827 ft | 514 kts | 133° |
| 2026-04-23 00:59 | 18.81192 | 92.14163 | 40830 ft | 514 kts | 133° |
| 2026-04-23 00:59 | 18.76763 | 92.20085 | 40831 ft | 514 kts | 133° |
| 2026-04-23 01:00 | 18.72336 | 92.25998 | 40828 ft | 513 kts | 133° |
| 2026-04-23 01:00 | 18.67912 | 92.31901 | 40831 ft | 513 kts | 133° |
| 2026-04-23 01:01 | 18.63488 | 92.37801 | 40829 ft | 513 kts | 133° |
| 2026-04-23 01:01 | 18.59065 | 92.43696 | 40831 ft | 512 kts | 133° |
| 2026-04-23 01:02 | 18.54645 | 92.49582 | 40832 ft | 512 kts | 133° |
| 2026-04-23 01:02 | 18.50226 | 92.55461 | 40832 ft | 512 kts | 132° |
| 2026-04-23 01:03 | 18.45806 | 92.61337 | 40832 ft | 511 kts | 132° |
| 2026-04-23 01:03 | 18.41392 | 92.67200 | 40834 ft | 511 kts | 132° |
| 2026-04-23 01:04 | 18.36979 | 92.73055 | 40834 ft | 510 kts | 133° |
| 2026-04-23 01:04 | 18.30398 | 92.81779 | 40837 ft | 509 kts | 132° |
| 2026-04-23 01:05 | 18.25993 | 92.87611 | 40840 ft | 508 kts | 132° |
| 2026-04-23 01:05 | 18.21593 | 92.93430 | 40836 ft | 508 kts | 132° |
| 2026-04-23 01:06 | 18.17197 | 92.99240 | 40837 ft | 507 kts | 132° |
| 2026-04-23 01:06 | 18.12804 | 93.05041 | 40836 ft | 507 kts | 132° |
| 2026-04-23 01:07 | 18.08414 | 93.10833 | 40835 ft | 506 kts | 132° |
| 2026-04-23 01:07 | 18.04766 | 93.15641 | 40835 ft | 506 kts | 132° |
| 2026-04-23 01:08 | 18.00380 | 93.21419 | 40838 ft | 506 kts | 132° |
| 2026-04-23 01:08 | 17.95992 | 93.27193 | 40838 ft | 505 kts | 132° |
| 2026-04-23 01:09 | 17.91607 | 93.32958 | 40833 ft | 505 kts | 132° |
| 2026-04-23 01:09 | 17.87221 | 93.38719 | 40841 ft | 505 kts | 132° |
| 2026-04-23 01:10 | 17.82836 | 93.44475 | 40840 ft | 505 kts | 132° |
| 2026-04-23 01:10 | 17.78451 | 93.50225 | 40836 ft | 504 kts | 132° |
| 2026-04-23 01:11 | 17.74066 | 93.55970 | 40838 ft | 504 kts | 132° |
| 2026-04-23 01:11 | 17.69683 | 93.61707 | 40841 ft | 504 kts | 132° |
| 2026-04-23 01:12 | 17.65328 | 93.67402 | 40836 ft | 504 kts | 132° |
| 2026-04-23 01:12 | 17.60946 | 93.73128 | 40835 ft | 503 kts | 132° |
| 2026-04-23 01:13 | 17.56563 | 93.78852 | 40837 ft | 503 kts | 132° |
| 2026-04-23 01:13 | 17.52182 | 93.84567 | 40834 ft | 503 kts | 132° |
| 2026-04-23 01:14 | 17.47797 | 93.90282 | 40834 ft | 503 kts | 132° |
| 2026-04-23 01:14 | 17.43418 | 93.95986 | 40832 ft | 502 kts | 132° |
| 2026-04-23 01:15 | 17.39036 | 94.01687 | 40833 ft | 502 kts | 132° |
| 2026-04-23 01:15 | 17.34657 | 94.07381 | 40835 ft | 502 kts | 132° |
| 2026-04-23 01:16 | 17.30278 | 94.13070 | 40834 ft | 502 kts | 132° |
| 2026-04-23 01:16 | 17.25900 | 94.18753 | 40835 ft | 502 kts | 132° |
| 2026-04-23 01:17 | 17.21520 | 94.24435 | 40836 ft | 501 kts | 132° |
| 2026-04-23 01:17 | 17.17141 | 94.30109 | 40837 ft | 501 kts | 132° |
| 2026-04-23 01:18 | 17.12763 | 94.35777 | 40838 ft | 501 kts | 132° |
| 2026-04-23 01:18 | 17.08386 | 94.41440 | 40838 ft | 501 kts | 132° |
| 2026-04-23 01:19 | 17.04006 | 94.47101 | 40838 ft | 501 kts | 132° |
| 2026-04-23 01:19 | 16.99624 | 94.52759 | 40840 ft | 501 kts | 132° |
| 2026-04-23 01:20 | 16.95246 | 94.58411 | 40839 ft | 500 kts | 131° |
| 2026-04-23 01:20 | 16.90867 | 94.64061 | 40840 ft | 500 kts | 131° |
| 2026-04-23 01:21 | 16.86488 | 94.69705 | 40836 ft | 500 kts | 132° |
| 2026-04-23 01:21 | 16.82200 | 94.75418 | 40843 ft | 502 kts | 125° |
| 2026-04-23 01:22 | 16.78715 | 94.81745 | 40836 ft | 503 kts | 121° |
| 2026-04-23 01:22 | 16.75436 | 94.88203 | 40835 ft | 503 kts | 120° |
| 2026-04-23 01:23 | 16.72232 | 94.94637 | 40838 ft | 503 kts | 119° |
| 2026-04-23 01:23 | 16.69023 | 95.01118 | 40837 ft | 503 kts | 119° |
| 2026-04-23 01:24 | 16.65819 | 95.07594 | 40838 ft | 502 kts | 119° |
| 2026-04-23 01:24 | 16.62620 | 95.14062 | 40841 ft | 502 kts | 119° |
| 2026-04-23 01:25 | 16.59422 | 95.20527 | 40840 ft | 501 kts | 119° |
| 2026-04-23 01:25 | 16.56224 | 95.26987 | 40841 ft | 501 kts | 119° |
| 2026-04-23 01:26 | 16.53029 | 95.33437 | 40840 ft | 501 kts | 119° |
| 2026-04-23 01:26 | 16.49833 | 95.39884 | 40840 ft | 500 kts | 119° |
| 2026-04-23 01:27 | 16.46639 | 95.46323 | 40840 ft | 500 kts | 119° |
| 2026-04-23 01:27 | 16.43447 | 95.52751 | 40843 ft | 500 kts | 119° |
| 2026-04-23 01:28 | 16.40254 | 95.59176 | 40845 ft | 499 kts | 119° |
| 2026-04-23 01:28 | 16.37062 | 95.65595 | 40844 ft | 499 kts | 119° |
| 2026-04-23 01:29 | 16.33871 | 95.72007 | 40845 ft | 498 kts | 119° |
| 2026-04-23 01:29 | 16.30682 | 95.78409 | 40843 ft | 498 kts | 119° |
| 2026-04-23 01:30 | 16.27491 | 95.84808 | 40844 ft | 498 kts | 119° |
| 2026-04-23 01:30 | 16.24301 | 95.91198 | 40846 ft | 497 kts | 119° |
| 2026-04-23 01:31 | 16.21112 | 95.97581 | 40846 ft | 497 kts | 119° |
| 2026-04-23 01:31 | 16.17922 | 96.03961 | 40847 ft | 497 kts | 119° |
| 2026-04-23 01:32 | 16.14731 | 96.10337 | 40847 ft | 497 kts | 119° |
| 2026-04-23 01:32 | 16.11561 | 96.16665 | 40848 ft | 496 kts | 119° |
| 2026-04-23 01:33 | 16.08370 | 96.23030 | 40847 ft | 496 kts | 119° |
| 2026-04-23 01:33 | 16.05177 | 96.29391 | 40846 ft | 496 kts | 119° |
| 2026-04-23 01:34 | 16.01985 | 96.35747 | 40847 ft | 496 kts | 119° |
| 2026-04-23 01:34 | 15.98791 | 96.42100 | 40850 ft | 496 kts | 119° |
| 2026-04-23 01:35 | 15.95596 | 96.48448 | 40849 ft | 496 kts | 119° |
| 2026-04-23 01:35 | 15.92400 | 96.54794 | 40850 ft | 496 kts | 119° |
| 2026-04-23 01:36 | 15.89203 | 96.61135 | 40850 ft | 495 kts | 119° |
| 2026-04-23 01:36 | 15.86006 | 96.67473 | 40849 ft | 495 kts | 119° |
| 2026-04-23 01:37 | 15.82808 | 96.73805 | 40849 ft | 495 kts | 118° |
| 2026-04-23 01:37 | 15.79610 | 96.80132 | 40855 ft | 495 kts | 118° |
| 2026-04-23 01:38 | 15.76412 | 96.86453 | 40853 ft | 494 kts | 119° |
| 2026-04-23 01:38 | 15.73213 | 96.92772 | 40851 ft | 494 kts | 118° |
| 2026-04-23 01:39 | 15.70013 | 96.99085 | 40852 ft | 494 kts | 118° |
| 2026-04-23 01:39 | 15.66815 | 97.05390 | 40850 ft | 494 kts | 118° |
| 2026-04-23 01:40 | 15.63617 | 97.11692 | 40857 ft | 493 kts | 118° |
| 2026-04-23 01:40 | 15.60418 | 97.17989 | 40852 ft | 493 kts | 118° |
| 2026-04-23 01:41 | 15.57219 | 97.24282 | 40850 ft | 493 kts | 118° |
| 2026-04-23 01:41 | 15.54039 | 97.30530 | 40863 ft | 493 kts | 118° |
| 2026-04-23 01:42 | 15.50839 | 97.36814 | 40858 ft | 493 kts | 118° |
| 2026-04-23 01:42 | 15.47641 | 97.43091 | 40844 ft | 492 kts | 118° |
| 2026-04-23 01:43 | 15.44469 | 97.49383 | 40843 ft | 492 kts | 118° |
| 2026-04-23 01:43 | 15.41378 | 97.55709 | 40843 ft | 492 kts | 117° |
| 2026-04-23 01:44 | 15.38310 | 97.62046 | 40848 ft | 492 kts | 117° |
| 2026-04-23 01:44 | 15.35248 | 97.68383 | 40853 ft | 492 kts | 117° |
| 2026-04-23 01:45 | 15.32189 | 97.74713 | 40857 ft | 491 kts | 117° |
| 2026-04-23 01:45 | 15.29129 | 97.81040 | 40855 ft | 491 kts | 117° |
| 2026-04-23 01:46 | 15.26069 | 97.87363 | 40859 ft | 491 kts | 117° |
| 2026-04-23 01:46 | 15.23007 | 97.93685 | 40871 ft | 491 kts | 117° |
| 2026-04-23 01:47 | 15.19949 | 97.99994 | 40868 ft | 490 kts | 117° |
| 2026-04-23 01:47 | 15.16889 | 98.06303 | 40876 ft | 490 kts | 117° |
| 2026-04-23 01:48 | 15.13826 | 98.12610 | 40876 ft | 490 kts | 117° |
| 2026-04-23 01:48 | 15.10759 | 98.18912 | 40873 ft | 490 kts | 117° |
| 2026-04-23 01:49 | 15.07659 | 98.25191 | 40881 ft | 490 kts | 117° |
| 2026-04-23 01:49 | 15.04543 | 98.31459 | 40875 ft | 490 kts | 117° |
| 2026-04-23 01:50 | 15.01423 | 98.37727 | 40879 ft | 490 kts | 117° |
| 2026-04-23 01:50 | 14.98299 | 98.43993 | 40888 ft | 490 kts | 117° |
| 2026-04-23 01:51 | 14.95176 | 98.50255 | 40890 ft | 490 kts | 117° |
| 2026-04-23 01:51 | 14.92047 | 98.56521 | 40884 ft | 490 kts | 117° |
| 2026-04-23 01:52 | 14.88920 | 98.62782 | 40883 ft | 490 kts | 117° |
| 2026-04-23 01:52 | 14.85813 | 98.68998 | 40879 ft | 490 kts | 117° |
| 2026-04-23 01:53 | 14.82681 | 98.75259 | 40889 ft | 490 kts | 117° |
| 2026-04-23 01:53 | 14.79550 | 98.81513 | 40892 ft | 490 kts | 117° |
| 2026-04-23 01:54 | 14.76429 | 98.87743 | 40838 ft | 479 kts | 116° |
| 2026-04-23 01:54 | 14.74907 | 98.90779 | 40365 ft | 473 kts | 117° |
| 2026-04-23 01:54 | 14.73405 | 98.93781 | 39900 ft | 468 kts | 117° |
| 2026-04-23 01:55 | 14.71918 | 98.96753 | 39448 ft | 464 kts | 117° |
| 2026-04-23 01:55 | 14.70939 | 98.98707 | 39158 ft | 462 kts | 117° |
| 2026-04-23 01:55 | 14.69468 | 99.01644 | 38727 ft | 459 kts | 117° |
| 2026-04-23 01:55 | 14.68007 | 99.04557 | 38242 ft | 456 kts | 117° |
| 2026-04-23 01:56 | 14.66555 | 99.07453 | 37737 ft | 453 kts | 117° |
| 2026-04-23 01:56 | 14.65111 | 99.10330 | 37246 ft | 450 kts | 117° |
| 2026-04-23 01:56 | 14.63675 | 99.13190 | 36762 ft | 447 kts | 117° |
| 2026-04-23 01:56 | 14.62245 | 99.16038 | 36270 ft | 445 kts | 117° |
| 2026-04-23 01:57 | 14.60822 | 99.18867 | 35824 ft | 443 kts | 117° |
| 2026-04-23 01:57 | 14.59408 | 99.21680 | 35371 ft | 441 kts | 118° |
| 2026-04-23 01:57 | 14.57999 | 99.24482 | 34926 ft | 439 kts | 118° |
| 2026-04-23 01:57 | 14.56597 | 99.27268 | 34490 ft | 436 kts | 118° |
| 2026-04-23 01:58 | 14.55200 | 99.30042 | 34054 ft | 434 kts | 118° |
| 2026-04-23 01:58 | 14.53809 | 99.32802 | 33587 ft | 433 kts | 118° |
| 2026-04-23 01:58 | 14.52422 | 99.35549 | 33106 ft | 431 kts | 118° |
| 2026-04-23 01:58 | 14.51037 | 99.38287 | 32629 ft | 429 kts | 118° |
| 2026-04-23 01:59 | 14.49659 | 99.41013 | 32169 ft | 428 kts | 118° |
| 2026-04-23 01:59 | 14.48284 | 99.43731 | 31702 ft | 427 kts | 118° |
| 2026-04-23 01:59 | 14.46913 | 99.46441 | 31251 ft | 425 kts | 118° |
| 2026-04-23 01:59 | 14.45559 | 99.49146 | 30803 ft | 424 kts | 115° |
| 2026-04-23 02:00 | 14.44384 | 99.51937 | 30374 ft | 423 kts | 111° |
| 2026-04-23 02:00 | 14.43349 | 99.54728 | 29949 ft | 422 kts | 110° |
| 2026-04-23 02:00 | 14.42350 | 99.57569 | 29443 ft | 421 kts | 109° |
| 2026-04-23 02:00 | 14.41369 | 99.60450 | 28945 ft | 419 kts | 109° |
| 2026-04-23 02:01 | 14.40433 | 99.63252 | 28457 ft | 418 kts | 109° |
| 2026-04-23 02:01 | 14.39498 | 99.66086 | 27975 ft | 417 kts | 108° |
| 2026-04-23 02:01 | 14.38571 | 99.68911 | 27515 ft | 415 kts | 108° |
| 2026-04-23 02:01 | 14.37652 | 99.71724 | 27031 ft | 413 kts | 108° |
| 2026-04-23 02:02 | 14.36740 | 99.74527 | 26585 ft | 412 kts | 108° |
| 2026-04-23 02:02 | 14.35833 | 99.77320 | 26129 ft | 410 kts | 108° |
| 2026-04-23 02:02 | 14.34930 | 99.80101 | 25685 ft | 408 kts | 108° |
| 2026-04-23 02:02 | 14.34031 | 99.82868 | 25245 ft | 406 kts | 108° |
| 2026-04-23 02:03 | 14.33137 | 99.85621 | 24822 ft | 404 kts | 108° |
| 2026-04-23 02:03 | 14.32248 | 99.88364 | 24390 ft | 402 kts | 108° |
| 2026-04-23 02:03 | 14.31363 | 99.91090 | 23983 ft | 400 kts | 108° |
| 2026-04-23 02:03 | 14.30481 | 99.93806 | 23572 ft | 398 kts | 108° |
| 2026-04-23 02:04 | 14.28532 | 99.99807 | 22516 ft | 394 kts | 108° |
| 2026-04-23 02:04 | 14.27672 | 100.02484 | 22041 ft | 392 kts | 106° |
| 2026-04-23 02:04 | 14.26946 | 100.05187 | 21575 ft | 391 kts | 103° |
| 2026-04-23 02:05 | 14.26360 | 100.07917 | 21116 ft | 389 kts | 100° |
| 2026-04-23 02:05 | 14.25909 | 100.10664 | 20670 ft | 388 kts | 98° |
| 2026-04-23 02:05 | 14.25532 | 100.13412 | 20220 ft | 387 kts | 97° |
| 2026-04-23 02:05 | 14.25189 | 100.16153 | 19756 ft | 379 kts | 96° |
| 2026-04-23 02:06 | 14.24875 | 100.18758 | 19325 ft | 354 kts | 96° |
| 2026-04-23 02:06 | 14.24586 | 100.21208 | 18897 ft | 335 kts | 96° |
| 2026-04-23 02:06 | 14.24315 | 100.23534 | 18453 ft | 320 kts | 96° |
| 2026-04-23 02:06 | 14.24052 | 100.25766 | 17995 ft | 308 kts | 96° |
| 2026-04-23 02:07 | 14.23795 | 100.27918 | 17477 ft | 298 kts | 96° |
| 2026-04-23 02:07 | 14.23542 | 100.30001 | 16995 ft | 289 kts | 96° |
| 2026-04-23 02:07 | 14.23292 | 100.32030 | 16494 ft | 281 kts | 96° |
| 2026-04-23 02:07 | 14.23045 | 100.34006 | 16015 ft | 275 kts | 97° |
| 2026-04-23 02:08 | 14.22801 | 100.35943 | 15546 ft | 269 kts | 97° |
| 2026-04-23 02:08 | 14.22569 | 100.37799 | 15082 ft | 265 kts | 97° |
| 2026-04-23 02:08 | 14.22330 | 100.39704 | 14618 ft | 260 kts | 97° |
| 2026-04-23 02:08 | 14.22100 | 100.41541 | 14171 ft | 257 kts | 97° |
| 2026-04-23 02:09 | 14.21873 | 100.43354 | 13732 ft | 253 kts | 97° |
| 2026-04-23 02:09 | 14.21649 | 100.45146 | 13238 ft | 251 kts | 97° |
| 2026-04-23 02:09 | 14.21422 | 100.46920 | 12743 ft | 248 kts | 97° |
| 2026-04-23 02:09 | 14.21273 | 100.48085 | 12415 ft | 247 kts | 97° |
| 2026-04-23 02:10 | 14.21048 | 100.49831 | 11936 ft | 244 kts | 97° |
| 2026-04-23 02:10 | 14.20829 | 100.51558 | 11453 ft | 243 kts | 97° |
| 2026-04-23 02:10 | 14.20615 | 100.53262 | 10988 ft | 236 kts | 97° |
| 2026-04-23 02:10 | 14.20407 | 100.54919 | 10517 ft | 231 kts | 97° |
| 2026-04-23 02:11 | 14.20202 | 100.56542 | 10070 ft | 227 kts | 97° |
| 2026-04-23 02:11 | 14.19999 | 100.58142 | 9621 ft | 223 kts | 97° |
| 2026-04-23 02:11 | 14.19797 | 100.59721 | 9122 ft | 221 kts | 96° |
| 2026-04-23 02:11 | 14.19606 | 100.61285 | 8634 ft | 219 kts | 97° |
| 2026-04-23 02:12 | 14.19410 | 100.62837 | 8145 ft | 218 kts | 97° |
| 2026-04-23 02:12 | 14.19212 | 100.64382 | 7674 ft | 217 kts | 99° |
| 2026-04-23 02:12 | 14.18665 | 100.65794 | 7219 ft | 213 kts | 132° |
| 2026-04-23 02:12 | 14.17462 | 100.66649 | 6773 ft | 211 kts | 156° |
| 2026-04-23 02:13 | 14.16121 | 100.67197 | 6327 ft | 209 kts | 161° |
| 2026-04-23 02:13 | 14.15197 | 100.67521 | 5998 ft | 207 kts | 163° |
| 2026-04-23 02:13 | 14.13865 | 100.67919 | 5535 ft | 203 kts | 167° |
| 2026-04-23 02:13 | 14.12499 | 100.68275 | 5070 ft | 201 kts | 166° |
| 2026-04-23 02:14 | 14.11156 | 100.68653 | 4622 ft | 199 kts | 165° |
| 2026-04-23 02:14 | 14.09784 | 100.69043 | 4152 ft | 209 kts | 167° |
| 2026-04-23 02:14 | 14.08345 | 100.69045 | 3693 ft | 205 kts | 195° |
| 2026-04-23 02:14 | 14.07006 | 100.68601 | 3264 ft | 200 kts | 200° |
| 2026-04-23 02:15 | 14.04538 | 100.67620 | 2472 ft | 174 kts | 202° |
| 2026-04-23 02:15 | 14.03500 | 100.67170 | 2425 ft | 149 kts | 203° |
| 2026-04-23 02:15 | 14.02552 | 100.66734 | 2534 ft | 159 kts | 204° |
| 2026-04-23 02:16 | 14.01583 | 100.66261 | 2595 ft | 148 kts | 205° |
| 2026-04-23 02:16 | 14.00638 | 100.65758 | 2381 ft | 154 kts | 207° |
| 2026-04-23 02:16 | 13.99699 | 100.65241 | 2152 ft | 152 kts | 206° |
| 2026-04-23 02:16 | 13.98786 | 100.64713 | 1937 ft | 151 kts | 207° |
| 2026-04-23 02:17 | 13.97862 | 100.64192 | 1676 ft | 153 kts | 206° |
| 2026-04-23 02:17 | 13.96914 | 100.63667 | 1399 ft | 155 kts | 207° |
| 2026-04-23 02:17 | 13.96007 | 100.63147 | 1228 ft | 143 kts | 207° |
| 2026-04-23 02:17 | 13.95137 | 100.62652 | 1113 ft | 152 kts | 207° |
| 2026-04-23 02:18 | 13.94114 | 100.62069 | 629 ft | 183 kts | 205° |
| 2026-04-23 02:18 | 13.93031 | 100.61498 | 243 ft | 163 kts | 207° |
| 2026-04-23 02:18 | 13.92110 | 100.60946 | 27 ft | 142 kts | 205° |
| 2026-04-23 02:18 | 13.91435 | 100.60573 | 23 ft | 76 kts | 210° |
| 2026-04-23 02:19 | 13.91308 | 100.60500 | 22 ft | 47 kts | 210° |